Time;durP1;ratioP1;P1;durP2;ratioP2;P2;SDS_P1;SDS_P2;PMS_P1;PMS_P2;Temp;Humidity;BMP_temperature;BMP_pressure;BME280_temperature;BME280_humidity;BME280_pressure;Samples;Min_cycle;Max_cycle;Signal;HPM_P1;HPM_P2
2024/03/24 00:01:09;;;;;;;7.55;0.50;;;5.80;99.90;;;;;;5003171;28;20076;-80
2024/03/24 00:03:36;;;;;;;4.28;0.65;;;5.70;99.90;;;;;;5001986;28;20163;-79
2024/03/24 00:06:03;;;;;;;1.85;0.10;;;5.70;99.90;;;;;;5004826;28;20078;-79
2024/03/24 00:08:28;;;;;;;2.90;0.20;;;5.70;99.90;;;;;;5003587;28;20125;-79
2024/03/24 00:10:54;;;;;;;3.63;0.30;;;5.80;99.90;;;;;;5002678;28;20050;-79
2024/03/24 00:13:20;;;;;;;4.10;0.40;;;5.80;99.90;;;;;;5004435;28;20085;-79
2024/03/24 00:15:46;;;;;;;3.42;0.63;;;;;;;;;;5005754;28;20022;-79
2024/03/24 00:18:12;;;;;;;1.58;0.35;;;5.70;99.90;;;;;;5005308;28;20064;-80
2024/03/24 00:20:38;;;;;;;2.00;0.22;;;5.70;99.90;;;;;;5006163;28;20025;-79
2024/03/24 00:23:03;;;;;;;4.82;0.22;;;5.70;99.90;;;;;;5007491;28;20022;-80
2024/03/24 00:25:29;;;;;;;4.85;0.30;;;6.10;99.90;;;;;;5009263;28;20029;-80
2024/03/24 00:27:55;;;;;;;3.45;0.30;;;7.90;99.90;;;;;;5008098;28;20053;-80
2024/03/24 00:30:20;;;;;;;3.83;0.63;;;5.70;99.90;;;;;;5001770;28;20022;-80
2024/03/24 00:32:48;;;;;;;4.03;0.30;;;5.70;99.90;;;;;;5002820;28;20019;-80
2024/03/24 00:35:14;;;;;;;5.10;0.57;;;8.40;99.90;;;;;;5003253;28;20475;-80
2024/03/24 00:37:39;;;;;;;3.67;0.30;;;5.80;99.90;;;;;;5001903;28;20025;-79
2024/03/24 00:40:06;;;;;;;6.20;0.47;;;6.30;99.90;;;;;;5001961;28;20375;-79
2024/03/24 00:42:31;;;;;;;4.53;0.40;;;5.80;99.90;;;;;;5003257;28;20027;-79
2024/03/24 00:44:57;;;;;;;4.40;0.47;;;5.90;99.90;;;;;;5003862;28;20469;-79
2024/03/24 00:47:23;;;;;;;3.63;1.13;;;7.90;99.90;;;;;;5004276;28;20034;-78
2024/03/24 00:49:48;;;;;;;8.10;0.65;;;5.80;99.90;;;;;;5001626;28;20027;-78
2024/03/24 00:52:14;;;;;;;4.22;0.60;;;5.80;99.90;;;;;;5002410;28;20134;-79
2024/03/24 00:54:40;;;;;;;6.97;1.63;;;;;;;;;;5002615;28;20393;-79
2024/03/24 00:57:06;;;;;;;5.28;0.70;;;5.80;99.90;;;;;;5003777;28;20033;-78
2024/03/24 00:59:31;;;;;;;6.35;0.70;;;5.90;99.90;;;;;;5003978;28;20023;-78
2024/03/24 01:01:58;;;;;;;9.45;0.70;;;;;;;;;;5000559;28;20030;-78
2024/03/24 01:04:23;;;;;;;6.13;0.57;;;5.80;99.90;;;;;;4999438;28;20494;-78
2024/03/24 01:06:49;;;;;;;6.40;0.82;;;7.70;99.90;;;;;;4999853;28;20026;-79
2024/03/24 01:09:14;;;;;;;10.43;0.98;;;5.80;99.90;;;;;;5001300;28;20042;-79
2024/03/24 01:11:40;;;;;;;4.25;0.28;;;5.80;99.90;;;;;;5001492;28;20381;-78
2024/03/24 01:14:06;;;;;;;6.18;0.70;;;5.90;99.90;;;;;;5001806;28;20037;-78
2024/03/24 01:16:32;;;;;;;2.95;0.28;;;5.90;99.90;;;;;;4999777;28;20033;-78
2024/03/24 01:18:58;;;;;;;6.82;0.98;;;5.90;99.90;;;;;;5001674;28;20026;-77
2024/03/24 01:21:24;;;;;;;5.30;0.35;;;5.90;99.90;;;;;;5000035;28;20109;-78
2024/03/24 01:23:50;;;;;;;2.40;0.85;;;5.90;99.90;;;;;;5002340;28;20038;-78
2024/03/24 01:26:16;;;;;;;2.05;0.45;;;5.90;99.90;;;;;;5002257;28;20057;-78
2024/03/24 01:28:42;;;;;;;3.03;0.10;;;5.90;99.90;;;;;;5002651;28;20034;-78
2024/03/24 01:31:07;;;;;;;6.90;0.45;;;5.90;99.90;;;;;;5002742;28;20467;-78
2024/03/24 01:33:33;;;;;;;1.58;0.30;;;5.90;99.90;;;;;;5000807;28;20161;-78
2024/03/24 01:35:59;;;;;;;4.00;0.10;;;5.90;99.90;;;;;;5001128;28;20037;-78
2024/03/24 01:38:25;;;;;;;7.07;0.32;;;6.20;99.90;;;;;;4999993;28;20050;-78
2024/03/24 01:40:51;;;;;;;2.53;0.47;;;5.90;99.90;;;;;;5000452;28;20146;-78
2024/03/24 01:43:17;;;;;;;6.13;0.40;;;5.90;99.90;;;;;;5001438;28;20026;-78
2024/03/24 01:45:45;;;;;;;11.02;0.60;;;6.00;99.90;;;;;;5000515;28;20029;-78
2024/03/24 01:48:10;;;;;;;5.35;0.45;;;6.00;99.90;;;;;;4997821;28;20482;-79
2024/03/24 01:50:37;;;;;;;5.47;1.02;;;6.00;99.90;;;;;;4998295;28;20029;-79
2024/03/24 01:53:02;;;;;;;9.02;1.23;;;6.00;99.90;;;;;;4999790;28;20101;-79
2024/03/24 01:55:28;;;;;;;5.70;0.70;;;6.00;99.90;;;;;;5000165;28;20065;-79
2024/03/24 01:57:54;;;;;;;5.97;0.63;;;6.10;99.90;;;;;;4999093;28;20098;-78
2024/03/24 02:00:20;;;;;;;3.90;0.82;;;6.20;99.90;;;;;;5000299;28;20064;-77
2024/03/24 02:02:45;;;;;;;6.72;0.63;;;6.20;99.90;;;;;;5000763;28;20023;-77
2024/03/24 02:05:11;;;;;;;8.63;0.45;;;6.20;99.90;;;;;;5002622;28;20029;-76
2024/03/24 02:07:37;;;;;;;8.38;0.20;;;;;;;;;;5001287;28;20015;-77
2024/03/24 02:10:03;;;;;;;4.40;0.85;;;6.30;99.90;;;;;;5000435;28;20034;-77
2024/03/24 02:12:29;;;;;;;2.75;0.40;;;6.30;99.90;;;;;;5002538;28;20042;-77
2024/03/24 02:14:54;;;;;;;5.07;0.47;;;6.30;99.90;;;;;;5002949;28;20026;-77
2024/03/24 02:17:20;;;;;;;7.70;0.25;;;6.40;99.90;;;;;;5001264;28;20114;-77
2024/03/24 02:19:46;;;;;;;9.98;1.42;;;6.40;99.90;;;;;;5003923;28;20030;-77
2024/03/24 02:22:11;;;;;;;7.15;1.05;;;6.40;99.90;;;;;;5002374;28;20041;-77
2024/03/24 02:24:37;;;;;;;4.35;0.80;;;6.40;99.90;;;;;;5002837;28;20062;-76
2024/03/24 02:27:03;;;;;;;9.00;0.75;;;6.30;99.90;;;;;;5001436;28;20029;-77
2024/03/24 02:29:28;;;;;;;7.00;1.00;;;6.30;99.90;;;;;;5001108;28;20105;-77
2024/03/24 02:31:54;;;;;;;8.45;0.80;;;6.30;99.90;;;;;;5001268;28;20023;-78
2024/03/24 02:34:21;;;;;;;10.80;0.77;;;6.30;99.90;;;;;;5000098;28;20395;-77
2024/03/24 02:36:47;;;;;;;4.65;0.77;;;6.30;99.90;;;;;;5001708;28;20089;-80
2024/03/24 02:39:13;;;;;;;4.90;0.20;;;6.30;99.90;;;;;;5000165;28;20058;-80
2024/03/24 02:41:39;;;;;;;5.72;0.20;;;;;;;;;;4999470;28;20030;-80
2024/03/24 02:44:04;;;;;;;7.65;1.00;;;6.20;99.90;;;;;;4999668;28;20037;-79
2024/03/24 02:46:33;;;;;;;4.07;0.35;;;6.70;99.90;;;;;;5000135;28;19999;-79
2024/03/24 02:48:58;;;;;;;2.88;0.22;;;6.00;99.90;;;;;;4999623;28;20030;-79
2024/03/24 02:51:24;;;;;;;6.82;0.30;;;5.80;99.90;;;;;;4999765;28;20025;-80
2024/03/24 02:53:50;;;;;;;5.78;0.32;;;;;;;;;;5000546;28;20030;-79
2024/03/24 02:56:16;;;;;;;5.38;0.17;;;;;;;;;;4998143;28;20058;-79
2024/03/24 02:58:41;;;;;;;4.40;0.17;;;5.70;99.90;;;;;;4998480;28;20073;-79
2024/03/24 03:01:07;;;;;;;10.43;0.55;;;5.70;99.90;;;;;;5000646;28;20034;-79
2024/03/24 03:03:32;;;;;;;5.38;0.88;;;7.70;99.90;;;;;;4999694;28;20033;-79
2024/03/24 03:05:59;;;;;;;14.75;1.20;;;5.80;99.90;;;;;;4999903;28;20022;-79
2024/03/24 03:08:24;;;;;;;9.65;0.57;;;5.80;99.90;;;;;;5000201;28;20018;-80
2024/03/24 03:10:50;;;;;;;10.57;1.13;;;5.90;99.90;;;;;;5001651;28;20106;-80
2024/03/24 03:13:15;;;;;;;16.55;1.60;;;5.90;99.90;;;;;;5001036;28;20074;-80
2024/03/24 03:15:41;;;;;;;9.43;1.27;;;6.10;99.90;;;;;;4999317;28;20552;-80
2024/03/24 03:18:07;;;;;;;3.10;0.15;;;6.10;99.90;;;;;;4999800;28;20054;-79
2024/03/24 03:20:33;;;;;;;1.35;0.05;;;5.90;99.90;;;;;;4999731;28;20010;-79
2024/03/24 03:22:59;;;;;;;4.10;0.13;;;5.70;99.90;;;;;;4999270;28;20019;-79
2024/03/24 03:25:24;;;;;;;5.65;0.68;;;5.40;99.90;;;;;;4999851;28;20019;-79
2024/03/24 03:27:50;;;;;;;0.98;0.00;;;5.30;99.90;;;;;;4999619;28;20061;-79
2024/03/24 03:30:16;;;;;;;2.42;0.00;;;5.20;99.90;;;;;;4999246;28;20037;-79
2024/03/24 03:32:42;;;;;;;0.98;0.00;;;5.00;99.90;;;;;;4998446;28;20019;-79
2024/03/24 03:35:08;;;;;;;3.05;0.00;;;5.00;99.90;;;;;;5000077;28;20049;-79
2024/03/24 03:37:33;;;;;;;0.10;0.00;;;4.90;99.90;;;;;;4999926;28;20019;-79
2024/03/24 03:40:00;;;;;;;1.02;0.00;;;4.80;99.90;;;;;;5000300;28;20031;-79
2024/03/24 03:42:25;;;;;;;1.58;0.10;;;4.80;99.90;;;;;;5000150;28;20034;-79
2024/03/24 03:44:52;;;;;;;1.90;0.30;;;;;;;;;;4999600;28;20022;-79
2024/03/24 03:47:18;;;;;;;1.25;0.10;;;4.80;99.90;;;;;;5001725;28;20058;-80
2024/03/24 03:49:50;;;;;;;2.35;0.00;;;4.90;99.90;;;;;;4999028;28;20036;-80
2024/03/24 03:52:29;;;;;;;0.30;0.00;;;4.90;99.90;;;;;;4999947;28;20022;-80
2024/03/24 03:55:00;;;;;;;1.02;0.00;;;4.90;99.90;;;;;;4998775;28;20037;-80
2024/03/24 03:57:29;;;;;;;1.77;0.00;;;5.00;99.90;;;;;;4999351;28;20026;-80
2024/03/24 03:59:55;;;;;;;1.83;0.00;;;6.20;99.90;;;;;;4999026;28;20564;-79
2024/03/24 04:02:21;;;;;;;1.73;0.00;;;5.10;99.90;;;;;;4999211;28;20049;-79
2024/03/24 04:04:47;;;;;;;3.85;0.00;;;5.00;99.90;;;;;;4999197;28;20475;-79
2024/03/24 04:07:12;;;;;;;2.13;0.00;;;5.10;99.90;;;;;;4998434;28;20041;-78
2024/03/24 04:09:38;;;;;;;1.75;0.00;;;5.10;99.90;;;;;;4999677;28;20490;-78
2024/03/24 04:12:05;;;;;;;1.48;0.00;;;5.10;99.90;;;;;;4999534;28;20046;-78
2024/03/24 04:14:33;;;;;;;1.52;0.00;;;5.10;99.90;;;;;;4997884;28;20117;-77
2024/03/24 04:16:59;;;;;;;4.75;0.00;;;5.10;99.90;;;;;;4997822;28;20023;-77
2024/03/24 04:19:25;;;;;;;1.08;0.00;;;5.10;99.90;;;;;;4999944;28;20032;-77
2024/03/24 04:21:50;;;;;;;0.95;0.00;;;5.00;99.90;;;;;;4997932;28;20109;-78
2024/03/24 04:24:16;;;;;;;2.63;0.00;;;5.10;99.90;;;;;;5001626;28;20030;-78
2024/03/24 04:26:41;;;;;;;3.35;0.00;;;5.10;99.90;;;;;;5000051;28;20506;-78
2024/03/24 04:29:07;;;;;;;7.75;0.00;;;5.20;99.90;;;;;;5002037;28;20038;-77
2024/03/24 04:31:32;;;;;;;0.55;0.10;;;5.00;99.90;;;;;;4998566;28;20029;-78
2024/03/24 04:33:58;;;;;;;0.77;0.00;;;5.00;99.90;;;;;;4997825;28;20375;-77
2024/03/24 04:36:24;;;;;;;3.85;0.10;;;5.00;99.90;;;;;;4999626;28;20073;-77
2024/03/24 04:38:49;;;;;;;3.30;0.25;;;5.00;99.90;;;;;;5000609;28;20045;-77
2024/03/24 04:41:15;;;;;;;1.38;0.00;;;5.00;99.90;;;;;;4999210;28;20022;-78
2024/03/24 04:43:41;;;;;;;2.15;0.00;;;5.00;99.90;;;;;;4999775;28;20433;-78
2024/03/24 04:46:07;;;;;;;1.75;0.00;;;5.00;99.90;;;;;;5000321;28;20022;-78
2024/03/24 04:48:33;;;;;;;0.68;0.13;;;4.90;99.90;;;;;;4999753;28;20026;-78
2024/03/24 04:50:59;;;;;;;1.05;0.32;;;5.00;99.90;;;;;;4997187;28;20041;-78
2024/03/24 04:53:26;;;;;;;6.22;0.00;;;4.90;99.90;;;;;;4999743;28;20059;-78
2024/03/24 04:55:51;;;;;;;1.50;0.30;;;5.00;99.90;;;;;;4998680;28;20022;-78
2024/03/24 04:58:17;;;;;;;2.28;0.00;;;5.10;99.90;;;;;;5000118;28;20122;-78
2024/03/24 05:00:44;;;;;;;3.10;0.00;;;5.10;99.90;;;;;;5001107;28;20027;-78
2024/03/24 05:03:10;;;;;;;2.58;0.25;;;5.10;99.90;;;;;;4999155;28;20019;-78
2024/03/24 05:05:38;;;;;;;3.53;0.00;;;5.10;99.90;;;;;;4999928;28;20509;-78
2024/03/24 05:08:04;;;;;;;5.43;0.15;;;5.10;99.90;;;;;;4999455;28;20021;-78
2024/03/24 05:10:30;;;;;;;1.65;0.20;;;5.10;99.90;;;;;;5001203;28;20033;-79
2024/03/24 05:12:55;;;;;;;4.05;0.10;;;5.10;99.90;;;;;;5001770;28;20027;-79
2024/03/24 05:15:21;;;;;;;3.05;0.00;;;5.10;99.90;;;;;;5002429;28;20045;-78
2024/03/24 05:17:47;;;;;;;1.55;0.00;;;5.20;99.90;;;;;;5001323;28;20081;-79
2024/03/24 05:20:13;;;;;;;1.20;0.20;;;5.20;99.90;;;;;;5003255;28;20446;-79
2024/03/24 05:22:39;;;;;;;4.15;0.20;;;5.30;99.90;;;;;;5000221;28;20022;-79
2024/03/24 05:25:05;;;;;;;5.35;0.30;;;5.30;99.90;;;;;;5001961;28;20026;-78
2024/03/24 05:27:30;;;;;;;3.83;0.32;;;5.50;99.90;;;;;;5000306;28;20024;-78
2024/03/24 05:29:56;;;;;;;3.15;0.20;;;5.50;99.90;;;;;;5002031;28;20470;-79
2024/03/24 05:32:22;;;;;;;1.73;0.35;;;5.50;99.90;;;;;;5002399;28;20544;-78
2024/03/24 05:34:47;;;;;;;1.58;0.10;;;5.40;99.90;;;;;;5002823;28;20394;-78
2024/03/24 05:37:13;;;;;;;4.53;0.63;;;5.90;99.90;;;;;;5002976;28;20026;-78
2024/03/24 05:39:40;;;;;;;6.63;0.00;;;5.30;99.90;;;;;;5001979;28;20375;-79
2024/03/24 05:42:06;;;;;;;1.13;0.15;;;5.20;99.90;;;;;;5001728;28;20030;-79
2024/03/24 05:44:32;;;;;;;2.33;0.20;;;5.20;99.90;;;;;;5002355;28;20401;-79
2024/03/24 05:46:57;;;;;;;4.35;0.47;;;5.50;99.90;;;;;;5001895;28;20038;-79
2024/03/24 05:49:24;;;;;;;0.57;0.00;;;5.20;99.90;;;;;;5001434;28;20030;-79
2024/03/24 05:51:50;;;;;;;2.42;0.05;;;5.20;99.90;;;;;;5001942;28;20410;-78
2024/03/24 05:54:15;;;;;;;2.83;0.30;;;5.20;99.90;;;;;;5000348;28;20029;-78
2024/03/24 05:56:41;;;;;;;8.40;0.10;;;5.20;99.90;;;;;;5000141;28;20026;-78
2024/03/24 05:59:07;;;;;;;4.13;0.68;;;5.20;99.90;;;;;;5000792;28;20030;-78
2024/03/24 06:01:33;;;;;;;7.15;0.80;;;5.20;99.90;;;;;;5000967;28;20561;-78
2024/03/24 06:03:59;;;;;;;7.88;0.38;;;;;;;;;;5001303;28;20080;-78
2024/03/24 06:06:24;;;;;;;5.70;0.80;;;5.20;99.90;;;;;;5000175;28;20038;-79
2024/03/24 06:08:51;;;;;;;3.53;0.47;;;5.20;99.90;;;;;;5000267;28;20044;-80
2024/03/24 06:11:16;;;;;;;5.50;0.55;;;5.20;99.90;;;;;;5000173;28;20030;-79
2024/03/24 06:13:42;;;;;;;6.65;0.40;;;5.20;99.90;;;;;;5001504;28;20038;-78
2024/03/24 06:16:08;;;;;;;9.57;0.70;;;5.20;99.90;;;;;;4998550;28;20026;-77
2024/03/24 06:18:33;;;;;;;4.97;0.30;;;6.80;99.90;;;;;;4996791;28;20065;-78
2024/03/24 06:21:00;;;;;;;4.93;0.60;;;5.10;99.90;;;;;;4999215;28;20481;-77
2024/03/24 06:23:26;;;;;;;11.95;0.30;;;5.10;99.90;;;;;;4998834;28;20068;-77
2024/03/24 06:25:51;;;;;;;3.90;0.30;;;5.20;99.90;;;;;;4996853;28;20026;-77
2024/03/24 06:28:17;;;;;;;7.72;0.60;;;5.20;99.90;;;;;;4998539;28;20027;-77
2024/03/24 06:30:43;;;;;;;5.80;0.57;;;5.20;99.90;;;;;;4997151;28;20065;-77
2024/03/24 06:33:08;;;;;;;10.13;0.55;;;5.20;99.90;;;;;;4998566;28;20113;-77
2024/03/24 06:35:34;;;;;;;6.57;0.75;;;5.20;99.90;;;;;;4998871;28;20101;-77
2024/03/24 06:38:00;;;;;;;5.72;0.70;;;5.30;99.90;;;;;;4997251;28;20023;-76
2024/03/24 06:40:26;;;;;;;7.03;0.98;;;5.30;99.90;;;;;;4998618;28;20030;-76
2024/03/24 06:43:02;;;;;;;10.05;1.63;;;5.40;99.90;;;;;;4999181;28;20043;-76
2024/03/24 06:45:34;;;;;;;9.55;1.13;;;5.40;99.90;;;;;;4999206;28;20073;-76
2024/03/24 06:48:01;;;;;;;3.42;0.28;;;6.40;99.90;;;;;;4998406;28;20022;-77
2024/03/24 06:50:27;;;;;;;7.32;1.13;;;5.60;99.90;;;;;;4996954;28;20386;-77
2024/03/24 06:52:53;;;;;;;4.82;0.60;;;5.60;99.90;;;;;;4995383;28;20069;-77
2024/03/24 06:55:20;;;;;;;11.52;0.68;;;5.80;99.90;;;;;;4999053;28;20023;-77
2024/03/24 06:57:46;;;;;;;4.80;0.77;;;5.80;99.90;;;;;;4999506;28;20065;-77
2024/03/24 07:00:17;;;;;;;4.85;0.50;;;5.80;99.90;;;;;;4998360;28;20022;-77
2024/03/24 07:02:43;;;;;;;4.78;1.05;;;5.60;99.90;;;;;;5001391;28;20050;-76
2024/03/24 07:05:09;;;;;;;3.15;0.45;;;5.50;99.90;;;;;;4999683;28;20142;-76
2024/03/24 07:07:36;;;;;;;1.77;0.13;;;5.50;99.90;;;;;;4998117;28;20494;-77
2024/03/24 07:10:03;;;;;;;7.88;0.30;;;6.00;99.90;;;;;;4999056;28;20023;-77
2024/03/24 07:12:28;;;;;;;8.85;0.20;;;5.60;99.90;;;;;;4999007;28;20022;-77
2024/03/24 07:14:54;;;;;;;9.07;1.00;;;5.60;99.90;;;;;;4999373;28;20023;-77
2024/03/24 07:17:20;;;;;;;11.48;0.65;;;5.90;99.90;;;;;;4997725;28;20498;-77
2024/03/24 07:19:48;;;;;;;6.47;1.30;;;5.80;99.90;;;;;;4998424;28;20027;-76
2024/03/24 07:22:14;;;;;;;11.80;0.52;;;6.10;99.90;;;;;;4999378;28;20030;-77
2024/03/24 07:24:40;;;;;;;9.10;1.08;;;6.00;99.90;;;;;;4996892;28;20401;-76
2024/03/24 07:27:06;;;;;;;10.35;1.67;;;6.20;99.90;;;;;;4997243;28;20071;-79
2024/03/24 07:29:32;;;;;;;14.25;0.65;;;6.20;99.90;;;;;;4999323;28;20442;-79
2024/03/24 07:31:57;;;;;;;5.63;1.10;;;6.30;99.90;;;;;;4998605;28;20026;-79
2024/03/24 07:34:23;;;;;;;6.38;0.98;;;7.90;99.90;;;;;;4996843;28;20022;-79
2024/03/24 07:36:48;;;;;;;10.02;0.55;;;6.30;99.90;;;;;;4998279;28;20137;-79
2024/03/24 07:39:14;;;;;;;7.90;0.60;;;6.40;99.90;;;;;;4998043;28;20030;-79
2024/03/24 07:41:45;;;;;;;10.27;0.98;;;6.60;99.90;;;;;;4998165;28;20131;-78
2024/03/24 07:44:11;;;;;;;10.52;0.90;;;6.60;99.90;;;;;;4996892;28;20037;-78
2024/03/24 07:46:36;;;;;;;7.18;0.60;;;6.70;99.90;;;;;;4996348;28;20418;-79
2024/03/24 07:49:02;;;;;;;8.80;0.55;;;6.60;99.90;;;;;;4996042;28;20184;-78
2024/03/24 07:51:30;;;;;;;8.25;0.90;;;6.50;99.90;;;;;;4998485;28;20022;-78
2024/03/24 07:53:57;;;;;;;10.30;0.68;;;;;;;;;;4997616;28;20011;-78
2024/03/24 07:56:22;;;;;;;4.82;0.50;;;6.30;99.90;;;;;;4999416;28;20019;-78
2024/03/24 07:58:48;;;;;;;4.20;0.22;;;6.20;99.90;;;;;;4997933;28;20109;-78
2024/03/24 08:01:14;;;;;;;7.97;0.65;;;6.10;99.90;;;;;;4997571;28;20080;-78
2024/03/24 08:03:39;;;;;;;5.20;0.57;;;6.10;99.90;;;;;;4996107;28;20089;-79
2024/03/24 08:06:05;;;;;;;3.72;0.38;;;6.10;99.90;;;;;;4998566;28;20027;-79
2024/03/24 08:08:31;;;;;;;5.05;0.17;;;6.10;99.90;;;;;;4998148;28;20037;-79
2024/03/24 08:10:59;;;;;;;8.20;0.73;;;6.20;99.90;;;;;;5004797;28;20557;-79
2024/03/24 08:13:25;;;;;;;7.38;0.20;;;6.10;99.90;;;;;;4999578;28;20410;-79
2024/03/24 08:15:50;;;;;;;5.70;0.73;;;6.20;99.90;;;;;;4996098;28;20034;-78
2024/03/24 08:18:16;;;;;;;8.05;1.50;;;6.30;99.90;;;;;;4998329;28;20475;-79
2024/03/24 08:20:46;;;;;;;11.35;1.15;;;6.30;99.90;;;;;;4997834;28;20028;-79
2024/03/24 08:23:15;;;;;;;9.35;1.13;;;6.40;99.90;;;;;;4998285;28;20109;-79
2024/03/24 08:25:41;;;;;;;6.45;0.80;;;6.60;99.90;;;;;;4996239;28;20017;-75
2024/03/24 08:28:07;;;;;;;10.00;1.23;;;6.70;99.90;;;;;;4997990;28;20407;-75
2024/03/24 08:30:33;;;;;;;4.97;1.02;;;6.70;99.90;;;;;;4998337;28;20050;-75
2024/03/24 08:32:58;;;;;;;12.35;1.08;;;6.80;99.90;;;;;;4998760;28;20464;-75
2024/03/24 08:35:24;;;;;;;8.63;1.67;;;6.80;99.90;;;;;;4998551;28;20037;-75
2024/03/24 08:37:51;;;;;;;4.03;0.30;;;6.90;99.90;;;;;;4996090;28;20025;-75
2024/03/24 08:40:17;;;;;;;5.07;0.10;;;6.90;99.90;;;;;;4997204;28;20031;-75
2024/03/24 08:42:42;;;;;;;3.40;0.20;;;6.90;99.90;;;;;;4995901;28;20116;-75
2024/03/24 08:45:08;;;;;;;8.55;0.88;;;8.30;99.90;;;;;;5000576;28;20073;-75
2024/03/24 08:47:34;;;;;;;6.72;1.45;;;6.90;99.90;;;;;;5001324;28;20026;-75
2024/03/24 08:49:59;;;;;;;17.25;1.35;;;7.00;99.90;;;;;;5000048;28;20033;-75
2024/03/24 08:52:25;;;;;;;13.75;0.75;;;7.00;99.90;;;;;;4999373;28;20467;-75
2024/03/24 08:54:51;;;;;;;13.35;1.23;;;7.00;99.90;;;;;;5000056;28;20446;-75
2024/03/24 08:57:17;;;;;;;12.40;0.85;;;6.90;99.90;;;;;;5000251;28;20049;-75
2024/03/24 08:59:42;;;;;;;13.70;1.48;;;6.90;99.90;;;;;;4999814;28;20033;-75
2024/03/24 09:02:08;;;;;;;4.53;0.15;;;6.80;99.90;;;;;;5000349;28;20037;-75
2024/03/24 09:04:34;;;;;;;5.05;0.20;;;6.80;99.90;;;;;;5000130;28;20021;-75
2024/03/24 09:06:59;;;;;;;5.22;0.45;;;6.60;99.90;;;;;;4999657;28;20085;-75
2024/03/24 09:09:25;;;;;;;2.75;0.00;;;6.50;99.90;;;;;;5000878;28;20392;-75
2024/03/24 09:11:50;;;;;;;1.60;0.10;;;6.40;99.90;;;;;;5001519;28;20031;-75
2024/03/24 09:14:16;;;;;;;1.52;0.05;;;7.30;99.90;;;;;;5001212;28;20105;-75
2024/03/24 09:16:41;;;;;;;2.45;0.13;;;6.40;99.90;;;;;;5001120;28;20029;-75
2024/03/24 09:19:07;;;;;;;1.60;0.03;;;6.50;99.90;;;;;;5002165;28;20034;-75
2024/03/24 09:21:34;;;;;;;4.22;0.00;;;6.50;99.90;;;;;;4999206;28;20050;-75
2024/03/24 09:24:00;;;;;;;8.30;0.20;;;6.50;99.90;;;;;;4999078;28;20030;-75
2024/03/24 09:26:25;;;;;;;4.45;0.03;;;6.50;99.90;;;;;;5000002;28;20040;-75
2024/03/24 09:28:51;;;;;;;3.30;0.30;;;6.50;99.90;;;;;;5009843;28;20030;-75
2024/03/24 09:31:17;;;;;;;4.20;0.70;;;6.60;99.90;;;;;;5018852;28;20045;-75
2024/03/24 09:33:42;;;;;;;6.75;0.35;;;6.90;99.90;;;;;;5017085;28;20042;-75
2024/03/24 09:36:08;;;;;;;6.57;0.98;;;6.70;99.90;;;;;;5019123;28;20022;-76
2024/03/24 09:38:34;;;;;;;4.47;0.00;;;6.90;99.90;;;;;;5018686;28;20030;-76
2024/03/24 09:40:59;;;;;;;5.30;0.68;;;7.10;99.90;;;;;;5016689;28;20164;-76
2024/03/24 09:43:25;;;;;;;4.03;0.00;;;7.30;99.90;;;;;;5018883;28;20552;-76
2024/03/24 09:45:51;;;;;;;1.25;0.00;;;7.20;99.90;;;;;;5018472;28;20032;-76
2024/03/24 09:48:17;;;;;;;2.90;0.32;;;7.10;99.90;;;;;;5016945;28;20112;-76
2024/03/24 09:50:46;;;;;;;4.10;0.43;;;7.00;99.90;;;;;;5017088;28;20018;-76
2024/03/24 09:53:11;;;;;;;;;;;7.00;99.90;;;;;;5018194;28;20018;-75
2024/03/24 09:55:37;;;;;;;4.13;0.00;;;7.00;99.90;;;;;;5017946;28;19963;-75
2024/03/24 09:58:03;;;;;;;0.77;0.03;;;7.00;99.90;;;;;;5018732;28;20076;-76
2024/03/24 10:00:29;;;;;;;7.28;0.17;;;7.00;99.90;;;;;;5018566;28;20108;-75
2024/03/24 10:02:55;;;;;;;11.07;1.13;;;6.90;99.90;;;;;;5018855;28;20037;-76
2024/03/24 10:05:21;;;;;;;8.98;0.38;;;6.90;99.90;;;;;;5018790;28;20089;-75
2024/03/24 10:07:47;;;;;;;6.68;0.22;;;7.10;99.90;;;;;;5019207;28;20026;-75
2024/03/24 10:10:14;;;;;;;6.13;0.25;;;7.30;99.90;;;;;;5018497;28;20025;-76
2024/03/24 10:12:55;;;;;;;5.82;0.95;;;7.30;99.90;;;;;;5018291;28;20033;-75
2024/03/24 10:15:23;;;;;;;4.88;0.35;;;7.70;99.90;;;;;;5016888;28;20022;-81
2024/03/24 10:18:09;;;;;;;8.20;0.28;;;7.70;99.90;;;;;;5016773;28;20028;-79
2024/03/24 10:20:36;;;;;;;8.75;0.50;;;8.00;99.90;;;;;;5005868;28;20516;-78
2024/03/24 10:23:03;;;;;;;10.68;0.38;;;8.10;99.90;;;;;;4996318;28;20034;-78
2024/03/24 10:25:31;;;;;;;15.30;2.70;;;8.10;99.90;;;;;;5005122;28;20029;-78
2024/03/24 10:27:57;;;;;;;12.15;0.68;;;8.00;99.90;;;;;;5017332;28;20474;-77
2024/03/24 10:30:23;;;;;;;7.72;0.10;;;8.00;99.90;;;;;;5018932;28;20030;-77
2024/03/24 10:32:49;;;;;;;11.32;0.93;;;;;;;;;;5018475;28;20076;-78
2024/03/24 10:35:16;;;;;;;14.98;0.77;;;7.90;99.90;;;;;;5014685;28;20022;-79
2024/03/24 10:37:42;;;;;;;10.30;0.30;;;7.90;99.90;;;;;;5021644;28;20018;-80
2024/03/24 10:40:12;;;;;;;6.20;0.60;;;7.90;99.90;;;;;;5017654;28;20070;-78
2024/03/24 10:42:48;;;;;;;10.57;0.73;;;7.80;99.90;;;;;;5016587;28;20030;-78
2024/03/24 10:45:21;;;;;;;10.52;1.00;;;7.80;99.90;;;;;;5017666;28;20029;-78
2024/03/24 10:48:03;;;;;;;10.63;0.68;;;7.80;99.90;;;;;;5016936;28;20041;-78
2024/03/24 10:50:29;;;;;;;9.27;0.95;;;7.90;99.90;;;;;;5017265;28;20018;-78
2024/03/24 10:53:02;;;;;;;6.32;0.30;;;7.90;99.90;;;;;;5017223;28;20073;-78
2024/03/24 10:55:29;;;;;;;9.15;0.60;;;8.00;99.90;;;;;;5016638;28;20026;-77
2024/03/24 10:57:55;;;;;;;6.35;0.25;;;8.10;99.90;;;;;;5015751;28;20029;-78
2024/03/24 11:00:27;;;;;;;10.32;1.20;;;8.20;99.90;;;;;;5015564;28;20478;-78
2024/03/24 11:02:57;;;;;;;4.78;0.30;;;8.20;99.90;;;;;;5016780;28;20029;-78
2024/03/24 11:05:25;;;;;;;9.10;0.63;;;8.30;99.90;;;;;;5015164;28;20520;-78
2024/03/24 11:07:52;;;;;;;6.45;0.30;;;8.30;99.90;;;;;;5015802;28;20060;-78
2024/03/24 11:10:18;;;;;;;9.10;0.20;;;8.30;99.90;;;;;;5007697;28;20066;-78
2024/03/24 11:12:45;;;;;;;8.07;0.10;;;8.30;99.90;;;;;;5001133;28;20022;-78
2024/03/24 11:15:11;;;;;;;11.85;0.20;;;8.40;99.90;;;;;;4997277;28;20517;-78
2024/03/24 11:17:37;;;;;;;6.88;0.25;;;8.30;99.90;;;;;;5004223;28;20168;-77
2024/03/24 11:20:06;;;;;;;6.20;0.15;;;8.20;99.90;;;;;;5012569;28;20030;-77
2024/03/24 11:22:53;;;;;;;5.38;0.75;;;8.20;99.90;;;;;;5011689;28;20037;-77
2024/03/24 11:25:18;;;;;;;8.75;0.25;;;8.20;99.90;;;;;;5009236;28;20048;-76
2024/03/24 11:27:45;;;;;;;6.95;0.55;;;8.10;99.90;;;;;;5016581;28;20018;-76
2024/03/24 11:30:29;;;;;;;8.13;0.00;;;8.10;99.90;;;;;;5022777;28;20104;-77
2024/03/24 11:32:59;;;;;;;7.35;0.88;;;8.10;99.90;;;;;;5021106;28;20470;-76
2024/03/24 11:35:29;;;;;;;4.97;0.65;;;7.90;99.90;;;;;;5033033;28;20428;-75
2024/03/24 11:37:59;;;;;;;3.90;0.38;;;7.90;99.90;;;;;;5009185;28;20096;-76
2024/03/24 11:40:25;;;;;;;11.93;0.60;;;7.80;99.90;;;;;;5026479;28;20017;-75
2024/03/24 11:42:53;;;;;;;15.15;0.10;;;7.70;99.90;;;;;;5019557;28;20381;-76
2024/03/24 11:45:29;;;;;;;6.60;0.20;;;7.80;99.90;;;;;;5015145;28;20021;-76
2024/03/24 11:48:30;;;;;;;5.65;0.20;;;7.90;99.90;;;;;;5019193;28;20076;-76
2024/03/24 11:51:01;;;;;;;7.57;0.60;;;8.60;99.90;;;;;;5013026;28;20046;-77
2024/03/24 11:53:29;;;;;;;3.70;0.20;;;8.80;99.90;;;;;;5014027;28;20033;-78
2024/03/24 11:55:56;;;;;;;13.50;0.63;;;9.40;99.90;;;;;;5018991;28;20026;-77
2024/03/24 11:58:22;;;;;;;18.70;0.77;;;9.60;99.90;;;;;;5010679;28;20122;-78
2024/03/24 12:00:49;;;;;;;9.82;0.43;;;9.90;99.90;;;;;;5026947;28;20075;-79
2024/03/24 12:03:15;;;;;;;11.88;1.10;;;9.80;99.90;;;;;;5032286;28;20113;-77
2024/03/24 12:05:42;;;;;;;3.72;0.17;;;9.70;99.90;;;;;;5033339;28;20056;-77
2024/03/24 12:08:08;;;;;;;6.57;0.63;;;9.50;99.90;;;;;;5035549;28;20087;-78
2024/03/24 12:10:35;;;;;;;7.57;0.47;;;9.40;99.90;;;;;;5031041;28;20037;-77
2024/03/24 12:13:02;;;;;;;6.55;0.10;;;9.50;99.90;;;;;;5025831;28;20041;-77
2024/03/24 12:15:28;;;;;;;6.72;1.40;;;9.70;99.90;;;;;;5013098;28;20034;-79
2024/03/24 12:17:53;;;;;;;6.38;0.25;;;9.70;99.90;;;;;;5019851;28;20022;-78
2024/03/24 12:20:19;;;;;;;19.63;0.28;;;9.90;99.90;;;;;;5028381;28;20021;-78
2024/03/24 12:22:44;;;;;;;7.03;0.45;;;10.30;99.90;;;;;;5025162;28;20047;-77
2024/03/24 12:25:13;;;;;;;9.43;0.55;;;10.30;99.90;;;;;;5032219;28;20025;-77
2024/03/24 12:27:39;;;;;;;4.43;0.40;;;10.20;99.90;;;;;;5023606;28;20101;-78
2024/03/24 12:30:05;;;;;;;8.55;0.10;;;9.90;99.90;;;;;;5027966;28;20497;-77
2024/03/24 12:32:31;;;;;;;5.07;0.20;;;9.50;99.90;;;;;;5023524;28;20025;-77
2024/03/24 12:34:59;;;;;;;5.15;0.00;;;9.30;99.90;;;;;;5031537;28;20021;-78
2024/03/24 12:37:24;;;;;;;6.80;0.85;;;9.00;99.90;;;;;;5028255;28;20146;-76
2024/03/24 12:39:51;;;;;;;7.43;0.17;;;8.90;99.90;;;;;;5013704;28;20022;-77
2024/03/24 12:42:17;;;;;;;6.07;0.35;;;9.00;99.90;;;;;;5014805;28;20029;-76
2024/03/24 12:44:43;;;;;;;5.32;0.52;;;9.10;99.90;;;;;;5017225;28;20017;-77
2024/03/24 12:47:09;;;;;;;16.92;1.10;;;9.60;99.90;;;;;;5025514;28;20026;-78
2024/03/24 12:49:35;;;;;;;5.28;0.10;;;9.60;99.90;;;;;;5021697;28;20035;-78
2024/03/24 12:52:01;;;;;;;1.73;0.05;;;9.70;99.90;;;;;;5033064;28;20134;-77
2024/03/24 12:54:28;;;;;;;13.85;1.52;;;9.70;99.90;;;;;;5017666;28;20061;-76